Time;durP1;ratioP1;P1;durP2;ratioP2;P2;SDS_P1;SDS_P2;PMS_P1;PMS_P2;Temp;Humidity;BMP_temperature;BMP_pressure;BME280_temperature;BME280_humidity;BME280_pressure;Samples;Min_cycle;Max_cycle;Signal;HPM_P1;HPM_P2
2024/01/22 00:02:00;;;;;;;13.52;5.43;;;6.80;99.90;;;;;;5071739;28;20052;-74
2024/01/22 00:04:25;;;;;;;10.68;5.55;;;6.60;99.90;;;;;;5071609;28;20446;-74
2024/01/22 00:06:54;;;;;;;10.60;5.53;;;6.70;99.90;;;;;;5071599;28;20036;-74
2024/01/22 00:09:20;;;;;;;10.70;6.10;;;6.60;99.90;;;;;;5071483;28;20029;-74
2024/01/22 00:11:45;;;;;;;11.10;5.30;;;6.90;99.90;;;;;;5070644;28;20648;-74
2024/01/22 00:14:11;;;;;;;13.18;5.47;;;6.70;99.90;;;;;;5071675;28;20040;-74
2024/01/22 00:16:40;;;;;;;10.63;5.30;;;6.70;99.90;;;;;;5071735;28;20067;-75
2024/01/22 00:19:06;;;;;;;9.85;4.65;;;6.70;99.90;;;;;;5053578;28;20086;-74
2024/01/22 00:21:32;;;;;;;10.07;5.72;;;6.70;99.90;;;;;;5071568;28;20029;-74
2024/01/22 00:23:57;;;;;;;7.57;4.85;;;6.90;99.90;;;;;;5071395;28;20519;-74
2024/01/22 00:26:23;;;;;;;9.95;5.07;;;6.80;99.90;;;;;;5071447;28;20044;-74
2024/01/22 00:28:49;;;;;;;9.75;4.80;;;6.90;99.90;;;;;;5071524;28;20518;-74
2024/01/22 00:31:14;;;;;;;11.80;5.50;;;6.90;99.90;;;;;;5071720;28;20043;-74
2024/01/22 00:33:43;;;;;;;8.88;4.82;;;7.00;99.90;;;;;;5071547;28;20040;-74
2024/01/22 00:36:12;;;;;;;8.95;5.10;;;6.80;99.90;;;;;;5071552;28;20045;-74
2024/01/22 00:38:37;;;;;;;7.78;4.70;;;6.90;99.90;;;;;;5071245;28;20441;-74
2024/01/22 00:41:04;;;;;;;8.73;5.00;;;6.90;99.90;;;;;;5071690;28;20075;-74
2024/01/22 00:43:30;;;;;;;8.18;4.78;;;7.00;99.90;;;;;;5071531;28;20028;-74
2024/01/22 00:45:55;;;;;;;8.85;5.57;;;7.00;99.90;;;;;;5071627;28;20191;-74
2024/01/22 00:48:21;;;;;;;8.35;4.72;;;6.90;99.90;;;;;;5071442;28;20517;-75
2024/01/22 00:50:46;;;;;;;8.48;4.35;;;7.10;99.90;;;;;;5071353;28;20042;-74
2024/01/22 00:53:12;;;;;;;9.85;5.30;;;6.90;99.90;;;;;;5071075;28;20407;-74
2024/01/22 00:55:37;;;;;;;9.52;5.40;;;7.00;99.90;;;;;;5070946;28;20076;-74
2024/01/22 00:58:03;;;;;;;10.30;4.60;;;7.10;99.90;;;;;;5071343;28;20036;-74
2024/01/22 01:00:29;;;;;;;9.02;4.93;;;7.00;99.90;;;;;;5071163;28;20029;-74
2024/01/22 01:02:54;;;;;;;8.75;5.07;;;7.00;99.90;;;;;;5071018;28;20103;-75
2024/01/22 01:05:20;;;;;;;10.80;5.55;;;7.10;99.90;;;;;;5071101;28;20050;-74
2024/01/22 01:07:46;;;;;;;7.20;4.47;;;7.20;99.90;;;;;;5071042;28;20036;-74
2024/01/22 01:10:11;;;;;;;11.00;5.20;;;7.10;99.90;;;;;;5070885;28;20115;-74
2024/01/22 01:12:37;;;;;;;9.90;5.13;;;7.20;99.90;;;;;;5071138;28;20036;-74
2024/01/22 01:15:07;;;;;;;9.15;4.90;;;7.10;99.90;;;;;;5071091;28;20040;-75
2024/01/22 01:17:32;;;;;;;13.40;5.40;;;7.30;99.90;;;;;;5070881;28;20093;-75
2024/01/22 01:19:58;;;;;;;8.30;4.80;;;7.20;99.90;;;;;;5070799;28;20036;-75
2024/01/22 01:22:24;;;;;;;11.60;5.15;;;7.30;99.90;;;;;;5070937;28;20446;-75
2024/01/22 01:24:50;;;;;;;11.30;6.22;;;7.40;99.90;;;;;;5074613;28;20037;-73
2024/01/22 01:27:17;;;;;;;9.82;4.78;;;7.30;99.90;;;;;;5074728;28;20090;-73
2024/01/22 01:29:43;;;;;;;11.93;5.57;;;7.30;99.90;;;;;;5074547;28;20056;-75
2024/01/22 01:32:09;;;;;;;6.88;4.80;;;7.30;99.90;;;;;;5074621;28;20048;-73
2024/01/22 01:34:34;;;;;;;9.10;4.80;;;7.30;99.90;;;;;;5074332;28;20049;-73
2024/01/22 01:37:00;;;;;;;7.38;5.10;;;7.40;99.90;;;;;;5056346;28;20036;-73
2024/01/22 01:39:25;;;;;;;8.80;4.82;;;7.50;99.90;;;;;;5074445;28;20055;-73
2024/01/22 01:41:51;;;;;;;8.05;4.72;;;7.40;99.90;;;;;;5074572;28;20415;-73
2024/01/22 01:44:17;;;;;;;9.52;4.85;;;7.40;99.90;;;;;;5074404;28;20040;-74
2024/01/22 01:46:42;;;;;;;9.65;5.03;;;7.50;99.90;;;;;;5056316;28;20040;-73
2024/01/22 01:49:09;;;;;;;6.53;4.82;;;7.50;99.90;;;;;;5073977;28;20036;-75
2024/01/22 01:51:36;;;;;;;7.32;4.43;;;7.50;99.90;;;;;;5074121;28;20089;-75
2024/01/22 01:54:04;;;;;;;9.93;5.10;;;7.60;99.90;;;;;;5056161;28;20048;-75
2024/01/22 01:56:30;;;;;;;6.05;4.63;;;7.60;99.90;;;;;;5074229;28;20041;-75
2024/01/22 01:58:56;;;;;;;9.13;4.18;;;7.70;99.90;;;;;;5073966;28;20381;-75
2024/01/22 02:01:22;;;;;;;8.15;5.47;;;7.80;99.90;;;;;;5074127;28;20067;-75
2024/01/22 02:03:47;;;;;;;6.47;4.53;;;7.70;99.90;;;;;;5073757;28;20474;-75
2024/01/22 02:06:13;;;;;;;9.23;5.07;;;7.70;99.90;;;;;;5073814;28;20036;-75
2024/01/22 02:08:39;;;;;;;8.77;5.10;;;7.90;99.90;;;;;;5073795;28;20519;-75
2024/01/22 02:11:05;;;;;;;7.70;5.53;;;7.70;99.90;;;;;;5074007;28;20527;-75
2024/01/22 02:13:31;;;;;;;12.25;6.28;;;7.80;99.90;;;;;;5055792;28;20449;-75
2024/01/22 02:15:56;;;;;;;11.32;5.03;;;7.80;99.90;;;;;;5073591;28;20170;-76
2024/01/22 02:18:22;;;;;;;8.60;5.35;;;7.70;99.90;;;;;;5073534;28;20068;-76
2024/01/22 02:20:47;;;;;;;14.30;5.55;;;7.90;99.90;;;;;;5073521;28;20035;-73
2024/01/22 02:23:13;;;;;;;8.45;4.93;;;7.80;99.90;;;;;;5055602;28;20037;-76
2024/01/22 02:25:39;;;;;;;10.50;4.88;;;8.00;99.90;;;;;;5073725;28;20464;-76
2024/01/22 02:28:05;;;;;;;8.70;5.22;;;7.80;99.90;;;;;;5073594;28;20032;-76
2024/01/22 02:30:30;;;;;;;9.63;4.95;;;7.80;99.90;;;;;;5073386;28;20106;-76
2024/01/22 02:32:56;;;;;;;7.22;5.07;;;7.80;99.90;;;;;;5055372;28;20041;-76
2024/01/22 02:35:21;;;;;;;9.35;5.47;;;8.00;99.90;;;;;;5072386;28;20496;-76
2024/01/22 02:37:48;;;;;;;6.65;4.93;;;8.10;99.90;;;;;;5055256;28;20086;-76
2024/01/22 02:40:13;;;;;;;7.43;4.75;;;8.00;99.90;;;;;;5073305;28;20079;-76
2024/01/22 02:42:39;;;;;;;9.35;5.47;;;8.00;99.90;;;;;;5055232;28;20068;-76
2024/01/22 02:45:06;;;;;;;7.72;5.00;;;8.20;99.90;;;;;;5055248;28;20420;-76
2024/01/22 02:47:32;;;;;;;9.70;5.50;;;8.00;99.90;;;;;;5072938;28;20045;-76
2024/01/22 02:50:00;;;;;;;8.70;4.60;;;8.10;99.90;;;;;;5054933;28;20119;-76
2024/01/22 02:52:25;;;;;;;10.13;4.88;;;8.10;99.90;;;;;;5073233;28;20044;-76
2024/01/22 02:54:51;;;;;;;6.47;4.38;;;8.20;99.90;;;;;;5073073;28;20404;-76
2024/01/22 02:57:16;;;;;;;9.70;4.88;;;8.20;99.90;;;;;;5072937;28;20119;-73
2024/01/22 02:59:42;;;;;;;10.98;4.57;;;8.10;99.90;;;;;;5072737;28;20496;-76
2024/01/22 03:02:08;;;;;;;7.20;4.55;;;8.40;99.90;;;;;;5072847;28;20032;-76
2024/01/22 03:04:34;;;;;;;5.88;4.43;;;8.20;99.90;;;;;;5072495;28;20056;-73
2024/01/22 03:06:59;;;;;;;7.20;3.80;;;8.40;99.90;;;;;;5072913;28;20064;-74
2024/01/22 03:09:25;;;;;;;9.27;4.65;;;8.60;99.90;;;;;;5054620;28;20036;-73
2024/01/22 03:11:50;;;;;;;8.63;4.55;;;8.50;99.90;;;;;;5055038;28;20105;-76
2024/01/22 03:14:16;;;;;;;6.32;4.07;;;8.40;99.90;;;;;;5072467;28;20041;-74
2024/01/22 03:16:42;;;;;;;8.75;4.38;;;8.60;99.90;;;;;;5054569;28;20040;-73
2024/01/22 03:19:07;;;;;;;8.23;4.00;;;8.40;99.90;;;;;;5072203;28;20042;-73
2024/01/22 03:21:33;;;;;;;6.88;4.88;;;8.60;99.90;;;;;;5072634;28;20471;-74
2024/01/22 03:23:59;;;;;;;5.35;3.80;;;8.60;99.90;;;;;;5072505;28;20410;-73
2024/01/22 03:26:25;;;;;;;9.68;4.63;;;8.60;99.90;;;;;;5072526;28;20044;-76
2024/01/22 03:28:51;;;;;;;8.98;4.03;;;8.60;99.90;;;;;;5054172;28;20046;-74
2024/01/22 03:31:24;;;;;;;8.85;4.72;;;8.70;99.90;;;;;;5072292;28;20105;-73
2024/01/22 03:33:50;;;;;;;;;;;8.70;99.90;;;;;;5072405;28;20048;-73
2024/01/22 03:36:16;;;;;;;7.68;4.25;;;8.50;99.90;;;;;;5072363;28;19916;-73
2024/01/22 03:38:42;;;;;;;6.00;4.28;;;8.60;99.90;;;;;;5072061;28;20036;-73
2024/01/22 03:41:07;;;;;;;9.35;4.68;;;8.50;99.90;;;;;;5072248;28;20097;-73
2024/01/22 03:43:33;;;;;;;8.15;4.38;;;8.70;99.90;;;;;;5072094;28;20040;-76
2024/01/22 03:45:58;;;;;;;7.60;4.95;;;8.50;99.90;;;;;;5071892;28;20051;-73
2024/01/22 03:48:24;;;;;;;9.65;4.55;;;8.70;99.90;;;;;;5071684;28;20047;-74
2024/01/22 03:50:52;;;;;;;7.68;4.80;;;8.60;99.90;;;;;;5071932;28;20491;-74
2024/01/22 03:53:17;;;;;;;6.97;4.18;;;8.50;99.90;;;;;;5071797;28;20527;-74
2024/01/22 03:55:43;;;;;;;7.63;4.70;;;8.50;99.90;;;;;;5037226;28;20037;-74
2024/01/22 03:58:09;;;;;;;7.28;4.00;;;8.50;99.90;;;;;;5054067;28;20044;-74
2024/01/22 04:00:34;;;;;;;9.85;4.25;;;8.40;99.90;;;;;;5053942;28;20055;-76
2024/01/22 04:03:00;;;;;;;9.32;4.38;;;8.50;99.90;;;;;;5099778;22;20032;-80
2024/01/22 04:05:25;;;;;;;7.07;3.92;;;8.70;99.90;;;;;;5105852;28;20035;-80
2024/01/22 04:07:51;;;;;;;6.60;3.55;;;8.50;99.90;;;;;;5123622;28;20036;-80
2024/01/22 04:10:17;;;;;;;8.45;4.05;;;8.80;99.90;;;;;;5105090;28;20168;-80
2024/01/22 04:12:42;;;;;;;5.70;4.18;;;8.60;99.90;;;;;;5104892;28;20510;-81
2024/01/22 04:15:08;;;;;;;7.28;3.95;;;8.80;99.90;;;;;;5122737;28;20043;-80
2024/01/22 04:17:34;;;;;;;5.88;3.70;;;8.80;99.90;;;;;;5121425;28;20457;-80
2024/01/22 04:19:59;;;;;;;5.75;3.60;;;8.80;99.90;;;;;;5123437;28;20043;-81
2024/01/22 04:22:25;;;;;;;5.93;3.58;;;8.60;99.90;;;;;;5120294;28;20057;-80
2024/01/22 04:24:50;;;;;;;5.53;3.38;;;8.60;99.90;;;;;;5122760;28;20044;-80
2024/01/22 04:27:16;;;;;;;6.80;3.78;;;8.80;99.90;;;;;;5119805;28;20414;-80
2024/01/22 04:29:42;;;;;;;5.13;3.50;;;8.90;99.90;;;;;;5121053;28;20567;-80
2024/01/22 04:32:07;;;;;;;10.70;4.50;;;8.70;99.90;;;;;;5120010;28;20040;-79
2024/01/22 04:34:35;;;;;;;4.97;3.40;;;8.80;99.90;;;;;;5121408;28;20043;-79
2024/01/22 04:37:01;;;;;;;5.00;3.38;;;8.90;99.90;;;;;;5103149;28;20035;-79
2024/01/22 04:39:26;;;;;;;7.45;3.90;;;8.70;99.90;;;;;;5121283;28;20091;-79
2024/01/22 04:41:53;;;;;;;5.20;3.13;;;9.00;99.90;;;;;;5120208;28;20040;-79
2024/01/22 04:44:18;;;;;;;9.93;3.65;;;9.00;99.90;;;;;;5121509;28;20085;-80
2024/01/22 04:46:44;;;;;;;7.85;3.72;;;8.70;99.90;;;;;;5120001;28;20061;-80
2024/01/22 04:49:10;;;;;;;4.18;3.20;;;9.00;99.90;;;;;;5120752;28;20572;-79
2024/01/22 04:51:36;;;;;;;4.05;2.95;;;9.10;99.90;;;;;;5121780;28;20039;-79
2024/01/22 04:54:01;;;;;;;4.25;2.92;;;9.10;99.90;;;;;;5119618;28;20058;-79
2024/01/22 04:56:27;;;;;;;4.32;2.90;;;9.00;99.90;;;;;;5117389;28;20051;-79
2024/01/22 04:58:52;;;;;;;8.85;3.42;;;8.80;99.90;;;;;;5121754;28;20059;-79
2024/01/22 05:01:19;;;;;;;4.70;2.95;;;9.00;99.90;;;;;;5123720;28;20048;-79
2024/01/22 05:03:44;;;;;;;3.05;2.60;;;8.90;99.90;;;;;;5122286;28;20040;-79
2024/01/22 05:06:10;;;;;;;4.97;3.05;;;9.20;99.90;;;;;;5122646;28;20036;-79
2024/01/22 05:08:36;;;;;;;9.48;3.08;;;9.00;99.90;;;;;;5121859;28;20080;-79
2024/01/22 05:11:01;;;;;;;4.70;2.70;;;9.00;99.90;;;;;;5106624;28;20036;-79
2024/01/22 05:13:27;;;;;;;5.68;3.00;;;9.00;99.90;;;;;;5121351;28;20046;-79
2024/01/22 05:15:53;;;;;;;3.63;3.00;;;9.30;99.90;;;;;;5121847;28;20593;-79
2024/01/22 05:18:18;;;;;;;4.95;2.92;;;9.00;99.90;;;;;;5104761;28;20184;-79
2024/01/22 05:20:44;;;;;;;5.80;2.90;;;9.30;99.90;;;;;;5121499;28;20036;-79
2024/01/22 05:23:09;;;;;;;5.88;2.75;;;9.10;99.90;;;;;;5122104;28;20058;-79
2024/01/22 05:25:35;;;;;;;6.47;3.15;;;9.20;99.90;;;;;;5122213;28;20044;-79
2024/01/22 05:28:01;;;;;;;4.85;2.97;;;9.40;99.90;;;;;;5121107;28;20059;-79
2024/01/22 05:30:26;;;;;;;5.38;3.17;;;9.50;99.90;;;;;;5120953;28;20065;-79
2024/01/22 05:32:52;;;;;;;3.78;2.97;;;9.30;99.90;;;;;;5121653;28;20080;-79
2024/01/22 05:35:17;;;;;;;3.67;3.08;;;9.40;99.90;;;;;;5122710;28;20040;-80
2024/01/22 05:37:43;;;;;;;5.97;3.63;;;9.30;99.90;;;;;;5104556;28;20479;-79
2024/01/22 05:40:13;;;;;;;5.07;3.35;;;9.60;99.90;;;;;;5121228;28;20043;-79
2024/01/22 05:42:39;;;;;;;5.28;3.08;;;9.40;99.90;;;;;;5123465;28;20127;-80
2024/01/22 05:45:05;;;;;;;4.95;2.90;;;9.50;99.90;;;;;;5104899;28;20082;-79
2024/01/22 05:47:31;;;;;;;3.50;2.65;;;9.70;99.90;;;;;;5121599;28;20032;-79
2024/01/22 05:49:57;;;;;;;4.55;2.90;;;9.50;99.90;;;;;;5123880;28;20080;-80
2024/01/22 05:52:22;;;;;;;5.30;2.65;;;9.80;99.90;;;;;;5121231;28;20039;-79
2024/01/22 05:54:48;;;;;;;5.85;3.03;;;9.60;99.90;;;;;;5120576;28;20533;-79
2024/01/22 05:57:13;;;;;;;5.50;3.17;;;9.70;99.90;;;;;;5104128;28;20119;-79
2024/01/22 05:59:39;;;;;;;4.43;3.15;;;9.90;99.90;;;;;;5121796;28;20039;-78
2024/01/22 06:02:05;;;;;;;5.70;2.85;;;9.80;99.90;;;;;;5121905;28;20114;-79
2024/01/22 06:04:31;;;;;;;5.30;2.60;;;9.80;99.90;;;;;;5120265;28;20035;-79
2024/01/22 06:06:57;;;;;;;5.18;2.30;;;9.90;99.90;;;;;;5122554;28;20465;-78
2024/01/22 06:09:23;;;;;;;4.35;2.70;;;9.70;99.90;;;;;;5119039;28;20059;-78
2024/01/22 06:11:48;;;;;;;4.28;2.30;;;9.90;99.90;;;;;;5119353;28;20469;-78
2024/01/22 06:14:14;;;;;;;4.57;1.85;;;9.90;99.90;;;;;;5120020;28;20081;-79
2024/01/22 06:16:39;;;;;;;5.55;2.28;;;9.80;99.90;;;;;;5120023;28;20039;-78
2024/01/22 06:19:05;;;;;;;4.18;1.95;;;10.00;99.90;;;;;;5118888;28;20042;-79
2024/01/22 06:21:31;;;;;;;7.78;2.60;;;9.90;99.90;;;;;;5119960;28;20455;-80
2024/01/22 06:23:58;;;;;;;4.22;1.50;;;10.00;99.90;;;;;;5100035;28;20036;-78
2024/01/22 06:26:23;;;;;;;3.45;1.52;;;10.00;99.90;;;;;;5115989;28;20036;-77
2024/01/22 06:28:49;;;;;;;6.32;1.80;;;10.00;99.90;;;;;;5116480;28;20470;-77
2024/01/22 06:31:15;;;;;;;3.22;1.67;;;10.20;99.90;;;;;;5118016;28;20110;-77
2024/01/22 06:33:41;;;;;;;6.63;1.98;;;10.20;99.90;;;;;;5096003;28;20032;-77
2024/01/22 06:36:10;;;;;;;3.63;1.70;;;10.30;99.90;;;;;;5118325;28;20051;-77
2024/01/22 06:38:35;;;;;;;4.65;1.50;;;10.40;99.90;;;;;;5119325;28;20035;-77
2024/01/22 06:41:01;;;;;;;7.53;2.10;;;10.10;99.90;;;;;;5115818;28;20032;-78
2024/01/22 06:43:26;;;;;;;4.13;1.83;;;10.10;99.90;;;;;;5118861;28;20040;-78
2024/01/22 06:45:53;;;;;;;8.10;3.55;;;10.10;99.90;;;;;;5119605;28;20058;-78
2024/01/22 06:48:19;;;;;;;5.70;2.00;;;10.30;99.90;;;;;;5120667;28;20043;-78
2024/01/22 06:50:44;;;;;;;9.38;2.50;;;10.50;99.90;;;;;;5096690;28;20502;-76
2024/01/22 06:53:10;;;;;;;6.70;2.03;;;10.20;99.90;;;;;;5095190;28;20112;-78
2024/01/22 06:55:35;;;;;;;8.10;2.65;;;10.20;99.90;;;;;;5112831;28;20035;-79
2024/01/22 06:58:01;;;;;;;5.10;1.77;;;10.40;99.90;;;;;;5112400;28;20097;-78
2024/01/22 07:00:27;;;;;;;6.10;2.50;;;10.20;99.90;;;;;;5113021;28;20122;-79
2024/01/22 07:02:52;;;;;;;7.53;2.10;;;10.50;99.90;;;;;;5113974;28;20031;-78
2024/01/22 07:05:18;;;;;;;9.88;2.30;;;10.40;99.90;;;;;;5113635;28;20051;-78
2024/01/22 07:07:43;;;;;;;8.63;1.90;;;10.20;99.90;;;;;;5114818;28;20035;-78
2024/01/22 07:10:09;;;;;;;6.07;2.30;;;10.50;99.90;;;;;;5114360;28;20085;-78
2024/01/22 07:12:35;;;;;;;5.47;2.03;;;10.40;99.90;;;;;;5113099;28;20123;-79
2024/01/22 07:15:02;;;;;;;7.97;2.88;;;10.40;99.90;;;;;;5112629;28;20069;-78
2024/01/22 07:17:31;;;;;;;9.45;2.92;;;10.20;99.90;;;;;;5112408;28;20039;-78
2024/01/22 07:19:56;;;;;;;9.02;2.40;;;10.50;99.90;;;;;;5112478;28;20487;-78
2024/01/22 07:22:22;;;;;;;12.68;2.55;;;10.30;99.90;;;;;;5094802;28;20031;-77
2024/01/22 07:24:48;;;;;;;8.45;2.10;;;10.20;99.90;;;;;;5111589;28;20117;-77
2024/01/22 07:27:13;;;;;;;11.85;2.75;;;10.20;99.90;;;;;;5112012;28;20039;-78
2024/01/22 07:29:39;;;;;;;11.27;3.20;;;10.50;99.90;;;;;;5094849;28;20040;-77
2024/01/22 07:32:05;;;;;;;14.93;3.10;;;10.50;99.90;;;;;;5112064;28;20042;-78
2024/01/22 07:34:31;;;;;;;14.40;3.97;;;10.20;99.90;;;;;;5111608;28;20517;-78
2024/01/22 07:36:56;;;;;;;16.00;3.45;;;10.40;99.90;;;;;;5112187;28;20217;-77
2024/01/22 07:39:22;;;;;;;20.17;5.38;;;10.40;99.90;;;;;;5114053;28;20115;-77
2024/01/22 07:41:47;;;;;;;17.35;5.53;;;10.40;99.90;;;;;;5095802;28;20047;-78
2024/01/22 07:44:13;;;;;;;24.08;4.05;;;10.20;99.90;;;;;;5113372;28;20105;-78
2024/01/22 07:46:39;;;;;;;16.23;3.78;;;10.40;99.90;;;;;;5113886;28;20078;-78
2024/01/22 07:49:04;;;;;;;27.63;5.53;;;10.30;99.90;;;;;;5113585;28;20418;-78
2024/01/22 07:51:30;;;;;;;20.88;4.93;;;10.30;99.90;;;;;;5114221;28;20097;-78
2024/01/22 07:53:56;;;;;;;21.52;5.78;;;10.30;99.90;;;;;;5097575;28;20039;-78
2024/01/22 07:56:22;;;;;;;23.73;5.40;;;10.20;99.90;;;;;;5114477;28;20074;-78
2024/01/22 07:58:48;;;;;;;24.52;6.35;;;10.20;99.90;;;;;;5114020;28;20036;-78
2024/01/22 08:01:14;;;;;;;21.38;5.82;;;10.40;99.90;;;;;;5114104;28;20063;-78
2024/01/22 08:03:40;;;;;;;25.27;5.68;;;10.40;99.90;;;;;;5097717;28;20394;-78
2024/01/22 08:06:06;;;;;;;21.10;4.75;;;10.20;99.90;;;;;;5115281;28;20126;-78
2024/01/22 08:08:31;;;;;;;25.00;5.30;;;10.40;99.90;;;;;;5116556;28;20048;-78
2024/01/22 08:10:57;;;;;;;19.10;5.30;;;10.20;99.90;;;;;;5116009;28;20078;-78
2024/01/22 08:13:23;;;;;;;19.40;4.57;;;10.20;99.90;;;;;;5098266;28;20039;-79
2024/01/22 08:15:50;;;;;;;19.85;4.85;;;10.10;99.90;;;;;;5116443;28;20039;-78
2024/01/22 08:18:16;;;;;;;18.55;5.25;;;10.10;99.90;;;;;;5115233;28;20051;-78
2024/01/22 08:20:42;;;;;;;22.20;7.15;;;10.40;99.90;;;;;;5112995;28;20407;-78
2024/01/22 08:23:09;;;;;;;16.40;4.82;;;10.40;99.90;;;;;;5108105;28;20028;-78
2024/01/22 08:25:35;;;;;;;20.30;5.15;;;10.10;99.90;;;;;;5117456;28;20105;-79
2024/01/22 08:28:01;;;;;;;30.73;6.78;;;10.40;99.90;;;;;;5107229;28;20494;-78
2024/01/22 08:30:27;;;;;;;24.67;5.35;;;10.30;99.90;;;;;;5099476;28;20027;-79
2024/01/22 08:32:53;;;;;;;29.35;5.00;;;10.30;99.90;;;;;;5112978;28;20036;-79
2024/01/22 08:35:21;;;;;;;35.45;6.82;;;10.10;99.90;;;;;;5096517;28;20556;-78
2024/01/22 08:37:52;;;;;;;35.03;8.30;;;10.10;99.90;;;;;;5118301;28;20039;-79
2024/01/22 08:40:21;;;;;;;26.83;4.45;;;10.20;99.90;;;;;;5115686;28;20050;-79
2024/01/22 08:42:53;;;;;;;25.92;4.50;;;10.20;99.90;;;;;;5117195;28;20111;-80
2024/01/22 08:45:21;;;;;;;24.42;5.22;;;10.30;99.90;;;;;;5115124;28;20071;-80
2024/01/22 08:47:48;;;;;;;21.75;4.45;;;10.20;99.90;;;;;;5115071;28;20035;-80
2024/01/22 08:50:23;;;;;;;23.77;4.93;;;10.10;99.90;;;;;;5115237;28;20059;-80
2024/01/22 08:52:50;;;;;;;17.80;3.88;;;10.10;99.90;;;;;;5119669;28;20043;-79
2024/01/22 08:55:16;;;;;;;25.88;4.95;;;9.90;99.90;;;;;;5108517;28;20039;-80
2024/01/22 08:57:45;;;;;;;26.75;4.68;;;10.10;99.90;;;;;;5115658;28;20471;-80
2024/01/22 09:00:12;;;;;;;21.05;4.53;;;10.00;99.90;;;;;;5111652;28;20046;-77
2024/01/22 09:02:39;;;;;;;32.25;6.30;;;9.80;99.90;;;;;;5093537;28;20036;-77
2024/01/22 09:05:09;;;;;;;20.85;4.38;;;9.90;99.90;;;;;;5111504;28;20040;-78
2024/01/22 09:07:36;;;;;;;25.35;5.70;;;9.80;99.90;;;;;;5110637;28;20086;-77
2024/01/22 09:10:07;;;;;;;33.42;5.93;;;9.70;99.90;;;;;;5110412;28;20081;-77
2024/01/22 09:12:36;;;;;;;33.15;6.93;;;9.80;99.90;;;;;;5110427;28;20122;-77
2024/01/22 09:15:04;;;;;;;45.42;7.47;;;9.70;99.90;;;;;;5111678;28;20090;-77
2024/01/22 09:17:30;;;;;;;40.95;8.50;;;9.70;99.90;;;;;;5110302;28;20040;-77
2024/01/22 09:19:57;;;;;;;33.30;6.80;;;9.90;99.90;;;;;;5110398;28;20051;-77
2024/01/22 09:22:23;;;;;;;59.65;9.35;;;9.90;99.90;;;;;;5110271;28;20036;-77
2024/01/22 09:24:49;;;;;;;43.63;8.02;;;9.90;99.90;;;;;;5110277;28;20047;-77
2024/01/22 09:27:15;;;;;;;45.00;8.35;;;9.70;99.90;;;;;;5110603;28;20043;-77
2024/01/22 09:29:41;;;;;;;43.65;8.82;;;9.60;99.90;;;;;;5110698;28;20541;-77
2024/01/22 09:32:08;;;;;;;40.42;9.00;;;9.70;99.90;;;;;;5110596;28;20047;-77
2024/01/22 09:34:33;;;;;;;52.85;9.93;;;9.80;99.90;;;;;;5110239;28;20039;-77
2024/01/22 09:36:59;;;;;;;52.25;8.98;;;9.70;99.90;;;;;;5090756;28;20028;-77
2024/01/22 09:39:25;;;;;;;53.53;11.65;;;9.90;99.90;;;;;;5105554;28;20090;-77
2024/01/22 09:41:51;;;;;;;45.78;11.48;;;9.80;99.90;;;;;;5111879;28;20384;-76
2024/01/22 09:44:35;;;;;;;54.30;11.13;;;9.80;99.90;;;;;;5113674;28;20066;-76
2024/01/22 09:47:02;;;;;;;49.00;10.77;;;9.80;99.90;;;;;;5115140;28;20028;-76
2024/01/22 09:49:28;;;;;;;43.58;9.32;;;9.90;99.90;;;;;;5113869;28;20112;-76
2024/01/22 09:51:54;;;;;;;43.10;7.25;;;9.80;99.90;;;;;;5115743;28;20036;-78
2024/01/22 09:54:22;;;;;;;54.90;9.27;;;9.70;99.90;;;;;;5114021;28;20047;-76
2024/01/22 09:56:53;;;;;;;46.22;8.45;;;9.90;99.90;;;;;;5114095;28;20496;-75
2024/01/22 09:59:21;;;;;;;53.88;8.60;;;9.80;99.90;;;;;;5115220;28;20414;-76
2024/01/22 10:01:52;;;;;;;37.15;7.72;;;9.90;99.90;;;;;;5113846;28;20093;-76
2024/01/22 10:04:18;;;;;;;36.58;7.60;;;9.90;99.90;;;;;;5114731;28;20669;-76
2024/01/22 10:06:46;;;;;;;42.53;8.55;;;9.90;99.90;;;;;;5114721;28;20036;-77
2024/01/22 10:09:15;;;;;;;34.92;7.30;;;9.80;99.90;;;;;;5115130;28;20067;-78
2024/01/22 10:11:46;;;;;;;43.70;8.20;;;9.70;99.90;;;;;;5096135;28;20410;-77
2024/01/22 10:14:12;;;;;;;37.72;9.02;;;9.80;99.90;;;;;;5113427;28;20136;-77
2024/01/22 10:16:37;;;;;;;32.70;8.50;;;9.70;99.90;;;;;;5114058;28;20506;-78
2024/01/22 10:19:06;;;;;;;39.13;7.38;;;9.70;99.90;;;;;;5114578;28;20042;-77
2024/01/22 10:21:33;;;;;;;26.77;7.63;;;9.70;99.90;;;;;;5113340;28;20375;-77
2024/01/22 10:24:09;;;;;;;45.35;7.65;;;9.80;99.90;;;;;;5113053;28;20061;-77
2024/01/22 10:26:35;;;;;;;37.45;6.57;;;9.70;99.90;;;;;;5096038;28;20043;-77
2024/01/22 10:29:15;;;;;;;37.65;7.28;;;9.70;99.90;;;;;;5113033;28;20540;-77
2024/01/22 10:31:58;;;;;;;36.38;7.85;;;9.70;99.90;;;;;;5112851;28;20079;-77
2024/01/22 10:34:25;;;;;;;28.23;6.15;;;9.60;99.90;;;;;;5112753;28;20071;-77
2024/01/22 10:37:10;;;;;;;27.98;7.80;;;9.60;99.90;;;;;;5112547;28;20040;-76
2024/01/22 10:39:37;;;;;;;41.20;6.50;;;9.60;99.90;;;;;;5112717;28;20066;-77
2024/01/22 10:42:10;;;;;;;32.75;6.93;;;9.50;99.90;;;;;;5112767;28;20036;-77
2024/01/22 10:44:44;;;;;;;29.15;6.93;;;9.40;99.90;;;;;;5112805;28;20674;-77
2024/01/22 10:47:16;;;;;;;26.42;5.95;;;9.40;99.90;;;;;;5095854;28;20079;-77
2024/01/22 10:49:44;;;;;;;25.30;6.25;;;9.40;99.90;;;;;;5114013;28;20128;-77
2024/01/22 10:52:10;;;;;;;16.13;4.78;;;9.50;99.90;;;;;;5112401;28;20050;-77
2024/01/22 10:54:37;;;;;;;23.77;5.63;;;9.50;99.90;;;;;;5113924;28;20043;-77
2024/01/22 10:57:04;;;;;;;23.88;5.32;;;9.60;99.90;;;;;;5112030;28;20050;-77
2024/01/22 10:59:38;;;;;;;25.75;6.10;;;9.50;99.90;;;;;;5095040;28;20031;-77
2024/01/22 11:02:25;;;;;;;18.70;5.13;;;9.60;99.90;;;;;;5112590;28;20047;-77
2024/01/22 11:04:57;;;;;;;20.58;5.18;;;9.60;99.90;;;;;;5112065;28;20051;-77
2024/01/22 11:07:30;;;;;;;35.85;6.70;;;9.50;99.90;;;;;;5112331;28;20035;-76
2024/01/22 11:09:58;;;;;;;23.88;4.82;;;9.60;99.90;;;;;;5112078;28;20517;-77
2024/01/22 11:12:28;;;;;;;19.92;5.40;;;9.60;99.90;;;;;;5113564;28;20032;-77
2024/01/22 11:14:54;;;;;;;27.33;7.03;;;9.70;99.90;;;;;;5111879;28;20506;-77
2024/01/22 11:17:20;;;;;;;20.27;6.00;;;9.60;99.90;;;;;;5115854;28;20038;-79
2024/01/22 11:19:46;;;;;;;22.85;4.38;;;9.60;99.90;;;;;;5129209;28;20058;-79
2024/01/22 11:22:22;;;;;;;25.20;6.03;;;9.70;99.90;;;;;;5111070;28;20046;-79
2024/01/22 11:25:01;;;;;;;25.83;6.18;;;9.80;99.90;;;;;;5104667;28;20085;-78
2024/01/22 11:27:38;;;;;;;41.35;6.55;;;9.80;99.90;;;;;;5100427;28;20530;-79
2024/01/22 11:30:22;;;;;;;30.63;6.10;;;9.90;99.90;;;;;;5118228;28;20036;-79
2024/01/22 11:32:48;;;;;;;32.10;5.93;;;9.80;99.90;;;;;;5116158;28;20032;-79
2024/01/22 11:35:37;;;;;;;28.30;6.15;;;9.80;99.90;;;;;;5112011;28;20040;-79
2024/01/22 11:38:07;;;;;;;24.13;5.18;;;9.90;99.90;;;;;;5106710;28;20044;-79
2024/01/22 11:40:54;;;;;;;24.70;4.20;;;9.80;99.90;;;;;;5107227;28;20039;-79
2024/01/22 11:43:22;;;;;;;22.35;4.72;;;9.80;99.90;;;;;;5103230;28;20106;-79
2024/01/22 11:45:56;;;;;;;19.55;5.10;;;9.90;99.90;;;;;;5102739;28;20040;-79
2024/01/22 11:48:24;;;;;;;30.52;6.93;;;9.90;99.90;;;;;;5102868;28;20040;-79
2024/01/22 11:51:04;;;;;;;18.02;5.60;;;10.00;99.90;;;;;;5103330;28;20079;-79
2024/01/22 11:53:31;;;;;;;20.35;5.20;;;10.00;99.90;;;;;;5104875;28;20040;-79
2024/01/22 11:56:03;;;;;;;24.27;5.20;;;10.00;99.90;;;;;;5103074;28;20039;-79
2024/01/22 11:58:31;;;;;;;21.53;3.63;;;10.00;99.90;;;;;;5102436;28;20036;-79
2024/01/22 12:00:58;;;;;;;23.33;4.05;;;9.90;99.90;;;;;;5105246;28;20274;-79
2024/01/22 12:03:31;;;;;;;20.58;4.00;;;10.00;99.90;;;;;;5093537;28;20040;-75
2024/01/22 12:05:59;;;;;;;28.67;4.80;;;10.10;99.90;;;;;;5090184;28;20044;-74
2024/01/22 12:08:24;;;;;;;33.45;5.53;;;10.10;99.90;;;;;;5088810;28;20044;-74
2024/01/22 12:10:52;;;;;;;25.50;4.50;;;10.10;99.90;;;;;;5090704;28;20047;-74
2024/01/22 12:13:18;;;;;;;17.05;3.92;;;10.20;99.90;;;;;;5090639;28;20044;-74
2024/01/22 12:15:44;;;;;;;18.20;4.45;;;10.10;99.90;;;;;;5091935;28;20105;-74
2024/01/22 12:18:10;;;;;;;18.15;5.43;;;10.20;99.90;;;;;;5091873;28;20036;-74
2024/01/22 12:20:37;;;;;;;16.45;4.03;;;10.20;99.90;;;;;;5091651;28;20499;-74
2024/01/22 12:23:04;;;;;;;23.65;4.43;;;10.20;99.90;;;;;;5091751;28;20097;-75
2024/01/22 12:25:37;;;;;;;21.17;3.92;;;10.20;99.90;;;;;;5090519;28;20528;-71
2024/01/22 12:28:06;;;;;;;13.52;4.07;;;10.20;99.90;;;;;;5094354;28;20050;-72
2024/01/22 12:30:32;;;;;;;19.80;3.22;;;10.20;99.90;;;;;;5108886;28;20038;-72
2024/01/22 12:32:57;;;;;;;22.40;4.28;;;10.20;99.90;;;;;;5109987;28;20028;-72
2024/01/22 12:35:23;;;;;;;15.00;4.00;;;10.20;99.90;;;;;;5093192;28;20032;-72
2024/01/22 12:37:49;;;;;;;19.10;4.15;;;10.20;99.90;;;;;;5110475;28;20036;-73
2024/01/22 12:40:16;;;;;;;17.63;3.97;;;10.20;99.90;;;;;;5110628;28;20035;-73
2024/01/22 12:42:47;;;;;;;16.27;3.75;;;10.20;99.90;;;;;;5093678;28;20044;-73
2024/01/22 12:45:20;;;;;;;20.45;4.05;;;10.20;99.90;;;;;;5111720;28;20369;-73
2024/01/22 12:47:47;;;;;;;18.70;3.97;;;10.20;99.90;;;;;;5111754;28;20503;-73
2024/01/22 12:50:14;;;;;;;17.73;5.10;;;10.10;99.90;;;;;;5112158;28;20501;-73